createdAt,value
2022-12-01T00:00:00.125Z,811.52
2022-12-01T00:01:00.105Z,811.53
2022-12-01T00:02:00.252Z,811.46
2022-12-01T00:03:00.212Z,811.44
2022-12-01T00:04:00.113Z,811.47
2022-12-01T00:05:00.117Z,811.43
2022-12-01T00:06:00.117Z,811.43
2022-12-01T00:07:00.139Z,811.42
2022-12-01T00:08:00.245Z,811.45
2022-12-01T00:09:00.125Z,811.44
2022-12-01T00:10:00.159Z,811.47
2022-12-01T00:11:00.128Z,811.45
2022-12-01T00:12:00.134Z,811.45
2022-12-01T00:13:00.133Z,811.44
2022-12-01T00:14:00.139Z,811.43
2022-12-01T00:15:00.139Z,811.43
2022-12-01T00:16:00.241Z,811.44
2022-12-01T00:17:00.252Z,811.45
2022-12-01T00:18:00.148Z,811.47
2022-12-01T00:19:00.147Z,811.44
2022-12-01T00:20:00.173Z,811.45
2022-12-01T00:21:00.153Z,811.51
2022-12-01T00:22:00.166Z,811.45
2022-12-01T00:23:00.180Z,811.44
2022-12-01T00:24:00.166Z,811.45
2022-12-01T00:25:00.167Z,811.46
2022-12-01T00:26:00.175Z,811.45
2022-12-01T00:27:00.180Z,811.46
2022-12-01T00:28:00.181Z,811.42
2022-12-01T00:29:00.177Z,811.45
2022-12-01T00:30:00.186Z,811.46
2022-12-01T00:31:00.205Z,811.44
2022-12-01T00:32:00.270Z,811.43
2022-12-01T00:33:00.188Z,811.44
2022-12-01T00:34:00.193Z,811.41
2022-12-01T00:35:00.192Z,811.42
2022-12-01T00:36:00.224Z,811.40
2022-12-01T00:37:00.197Z,811.39
2022-12-01T00:38:00.210Z,811.43
2022-12-01T00:39:00.232Z,811.41
2022-12-01T00:40:00.212Z,811.43
2022-12-01T00:41:00.215Z,811.43
2022-12-01T00:42:00.213Z,811.44
2022-12-01T00:43:00.212Z,811.43
2022-12-01T00:44:00.222Z,811.43
2022-12-01T00:45:00.225Z,811.42
2022-12-01T00:46:00.329Z,811.43
2022-12-01T00:47:00.227Z,811.44
2022-12-01T00:48:00.234Z,811.45
2022-12-01T00:49:00.230Z,811.46
2022-12-01T00:50:00.240Z,811.47
2022-12-01T00:51:00.240Z,811.44
2022-12-01T00:52:00.243Z,811.44
2022-12-01T00:53:00.245Z,811.45
2022-12-01T00:54:00.260Z,811.46
2022-12-01T00:55:00.271Z,811.48
2022-12-01T00:56:00.257Z,811.49
2022-12-01T00:57:00.256Z,811.48
2022-12-01T00:58:00.258Z,811.49
2022-12-01T00:59:00.263Z,811.46
2022-12-01T01:00:00.266Z,811.47
2022-12-01T01:01:00.373Z,811.46
2022-12-01T01:02:00.351Z,811.43
2022-12-01T01:03:00.274Z,811.47
2022-12-01T01:04:00.281Z,811.48
2022-12-01T01:05:00.281Z,811.49
2022-12-01T01:06:00.283Z,811.49
2022-12-01T01:07:00.284Z,811.47
2022-12-01T01:08:00.379Z,811.46
2022-12-01T01:09:00.289Z,811.44
2022-12-01T01:10:00.297Z,811.44
2022-12-01T01:11:00.317Z,811.47
2022-12-01T01:12:00.300Z,811.47
2022-12-01T01:13:00.300Z,811.41
2022-12-01T01:14:00.306Z,811.45
2022-12-01T01:15:00.306Z,811.44
2022-12-01T01:16:00.314Z,811.47
2022-12-01T01:17:00.394Z,811.46
2022-12-01T01:18:00.318Z,811.45
2022-12-01T01:19:00.316Z,811.45
2022-12-01T01:20:00.339Z,811.43
2022-12-01T01:21:00.328Z,811.43
2022-12-01T01:22:00.347Z,811.42
2022-12-01T01:23:00.329Z,811.39
2022-12-01T01:24:00.336Z,811.44
2022-12-01T01:25:00.334Z,811.46
2022-12-01T01:26:00.340Z,811.44
2022-12-01T01:27:00.358Z,811.42
2022-12-01T01:28:00.350Z,811.43
2022-12-01T01:29:00.345Z,811.44
2022-12-01T01:30:00.357Z,811.47
2022-12-01T01:31:00.420Z,811.46
2022-12-01T01:32:00.359Z,811.46
2022-12-01T01:33:00.361Z,811.50
2022-12-01T01:34:00.368Z,811.45
2022-12-01T01:35:00.366Z,811.48
2022-12-01T01:36:00.375Z,811.51
2022-12-01T01:37:00.370Z,811.52
2022-12-01T01:38:00.371Z,811.49
2022-12-01T01:39:00.371Z,811.52
2022-12-01T01:40:00.378Z,811.52
2022-12-01T01:41:00.377Z,811.48
2022-12-01T01:42:00.383Z,811.52
2022-12-01T01:43:00.412Z,811.53
2022-12-01T01:44:00.391Z,811.54
2022-12-01T01:45:00.393Z,811.52
2022-12-01T01:46:00.438Z,811.51
2022-12-01T01:47:00.394Z,811.49
2022-12-01T01:48:00.413Z,811.53
2022-12-01T01:49:00.403Z,811.53
2022-12-01T01:50:00.409Z,811.52
2022-12-01T01:51:00.407Z,811.54
2022-12-01T01:52:00.412Z,811.52
2022-12-01T01:53:00.412Z,811.51
2022-12-01T01:54:00.418Z,811.53
2022-12-01T01:55:00.418Z,811.50
2022-12-01T01:56:00.424Z,811.52
2022-12-01T01:57:00.426Z,811.49
2022-12-01T01:58:00.428Z,811.52
2022-12-01T01:59:00.451Z,811.51
2022-12-01T02:00:00.435Z,811.54
2022-12-01T02:01:00.507Z,811.53
2022-12-01T02:02:00.507Z,811.53
2022-12-01T02:03:00.506Z,811.53
2022-12-01T02:04:00.446Z,811.50
2022-12-01T02:05:00.445Z,811.50
2022-12-01T02:06:04.871Z,811.48
2022-12-01T02:07:00.452Z,811.48
2022-12-01T02:08:00.552Z,811.47
2022-12-01T02:09:00.455Z,811.50
2022-12-01T02:10:00.464Z,811.51
2022-12-01T02:11:00.462Z,811.49
2022-12-01T02:12:00.473Z,811.50
2022-12-01T02:13:00.476Z,811.46
2022-12-01T02:14:00.487Z,811.50
2022-12-01T02:15:00.496Z,811.46
2022-12-01T02:16:00.481Z,811.46
2022-12-01T02:17:00.613Z,811.46
2022-12-01T02:18:00.485Z,811.48
2022-12-01T02:19:00.483Z,811.45
2022-12-01T02:20:00.496Z,811.43
2022-12-01T02:21:00.492Z,811.44
2022-12-01T02:22:00.595Z,811.43
2022-12-01T02:23:00.496Z,811.43
2022-12-01T02:24:00.502Z,811.42
2022-12-01T02:25:00.502Z,811.41
2022-12-01T02:26:00.508Z,811.43
2022-12-01T02:27:00.509Z,811.38
2022-12-01T02:28:00.513Z,811.39
2022-12-01T02:29:00.513Z,811.39
2022-12-01T02:30:00.523Z,811.36
2022-12-01T02:31:00.651Z,811.40
2022-12-01T02:32:00.537Z,811.38
2022-12-01T02:33:00.527Z,811.40
2022-12-01T02:34:00.530Z,811.37
2022-12-01T02:35:00.532Z,811.41
2022-12-01T02:36:00.536Z,811.39
2022-12-01T02:37:00.537Z,811.40
2022-12-01T02:38:00.547Z,811.38
2022-12-01T02:39:00.549Z,811.39
2022-12-01T02:40:00.547Z,811.38
2022-12-01T02:41:00.548Z,811.42
2022-12-01T02:42:00.552Z,811.38
2022-12-01T02:43:00.552Z,811.37
2022-12-01T02:44:00.559Z,811.39
2022-12-01T02:45:00.560Z,811.39
2022-12-01T02:46:00.681Z,811.37
2022-12-01T02:47:00.588Z,811.35
2022-12-01T02:48:00.570Z,811.39
2022-12-01T02:49:00.573Z,811.40
2022-12-01T02:50:00.586Z,811.37
2022-12-01T02:51:00.577Z,811.33
2022-12-01T02:52:00.578Z,811.33
2022-12-01T02:53:00.586Z,811.36
2022-12-01T02:54:00.583Z,811.36
2022-12-01T02:55:00.591Z,811.37
2022-12-01T02:56:00.589Z,811.38
2022-12-01T02:57:00.596Z,811.37
2022-12-01T02:58:00.595Z,811.35
2022-12-01T02:59:00.602Z,811.31
2022-12-01T03:00:00.630Z,811.33
2022-12-01T03:01:00.638Z,811.33
2022-12-01T03:02:00.605Z,811.29
2022-12-01T03:03:00.709Z,811.33
2022-12-01T03:04:00.620Z,811.32
2022-12-01T03:05:00.622Z,811.33
2022-12-01T03:06:00.616Z,811.32
2022-12-01T03:07:00.625Z,811.33
2022-12-01T03:08:00.693Z,811.31
2022-12-01T03:09:00.637Z,811.31
2022-12-01T03:10:00.627Z,811.30
2022-12-01T03:11:00.632Z,811.29
2022-12-01T03:12:00.632Z,811.25
2022-12-01T03:13:00.639Z,811.27
2022-12-01T03:14:00.636Z,811.28
2022-12-01T03:15:00.644Z,811.27
2022-12-01T03:16:00.738Z,811.32
2022-12-01T03:17:00.650Z,811.26
2022-12-01T03:18:00.648Z,811.24
2022-12-01T03:19:00.675Z,811.26
2022-12-01T03:20:00.654Z,811.24
2022-12-01T03:21:00.659Z,811.26
2022-12-01T03:22:00.664Z,811.25
2022-12-01T03:23:00.670Z,811.22
2022-12-01T03:24:00.764Z,811.23
2022-12-01T03:25:00.670Z,811.20
2022-12-01T03:26:00.670Z,811.24
2022-12-01T03:27:00.676Z,811.23
2022-12-01T03:28:20.717Z,811.23
2022-12-01T03:29:00.704Z,811.20
2022-12-01T03:30:00.685Z,811.21
2022-12-01T03:31:00.759Z,811.21
2022-12-01T03:32:00.689Z,811.19
2022-12-01T03:33:00.694Z,811.22
2022-12-01T03:34:00.691Z,811.23
2022-12-01T03:35:00.718Z,811.20
2022-12-01T03:36:00.704Z,811.21
2022-12-01T03:37:00.706Z,811.17
2022-12-01T03:38:00.703Z,811.19
2022-12-01T03:39:00.728Z,811.20
2022-12-01T03:40:01.416Z,811.15
2022-12-01T03:41:00.716Z,811.19
2022-12-01T03:42:00.714Z,811.20
2022-12-01T03:43:00.721Z,811.20
2022-12-01T03:44:00.722Z,811.20
2022-12-01T03:45:00.726Z,811.17
2022-12-01T03:46:00.796Z,811.20
2022-12-01T03:47:00.732Z,811.22
2022-12-01T03:48:00.729Z,811.25
2022-12-01T03:49:00.734Z,811.24
2022-12-01T03:50:00.733Z,811.25
2022-12-01T03:51:00.764Z,811.24
2022-12-01T03:52:00.740Z,811.27
2022-12-01T03:53:00.745Z,811.24
2022-12-01T03:54:00.748Z,811.24
2022-12-01T03:55:00.751Z,811.21
2022-12-01T03:56:00.749Z,811.24
2022-12-01T03:57:00.765Z,811.23
2022-12-01T03:58:00.755Z,811.25
2022-12-01T03:59:00.762Z,811.29
2022-12-01T04:00:00.765Z,811.25
2022-12-01T04:01:00.767Z,811.24
2022-12-01T04:02:00.834Z,811.22
2022-12-01T04:03:00.855Z,811.24
2022-12-01T04:04:00.770Z,811.23
2022-12-01T04:05:00.779Z,811.23
2022-12-01T04:06:00.775Z,811.23
2022-12-01T04:07:00.803Z,811.23
2022-12-01T04:08:00.822Z,811.19
2022-12-01T04:09:00.786Z,811.21
2022-12-01T04:10:00.785Z,811.24
2022-12-01T04:11:00.795Z,811.18
2022-12-01T04:12:00.791Z,811.23
2022-12-01T04:13:00.798Z,811.23
2022-12-01T04:14:00.810Z,811.24
2022-12-01T04:15:00.808Z,811.22
2022-12-01T04:16:00.845Z,811.23
2022-12-01T04:17:00.808Z,811.24
2022-12-01T04:18:00.807Z,811.23
2022-12-01T04:19:00.814Z,811.23
2022-12-01T04:20:00.812Z,811.24
2022-12-01T04:21:00.817Z,811.22
2022-12-01T04:22:00.817Z,811.22
2022-12-01T04:23:00.845Z,811.25
2022-12-01T04:24:00.823Z,811.22
2022-12-01T04:25:00.835Z,811.24
2022-12-01T04:26:00.835Z,811.23
2022-12-01T04:27:00.839Z,811.21
2022-12-01T04:28:00.838Z,811.19
2022-12-01T04:29:00.842Z,811.24
2022-12-01T04:30:00.838Z,811.20
2022-12-01T04:31:00.909Z,811.20
2022-12-01T04:32:00.845Z,811.18
2022-12-01T04:33:00.851Z,811.19
2022-12-01T04:34:00.851Z,811.15
2022-12-01T04:35:00.861Z,811.18
2022-12-01T04:36:00.866Z,811.19
2022-12-01T04:37:00.873Z,811.22
2022-12-01T04:38:00.999Z,811.22
2022-12-01T04:39:00.890Z,811.19
2022-12-01T04:40:00.875Z,811.21
2022-12-01T04:41:00.876Z,811.22
2022-12-01T04:42:00.872Z,811.21
2022-12-01T04:43:00.880Z,811.19
2022-12-01T04:44:00.880Z,811.25
2022-12-01T04:45:00.886Z,811.25
2022-12-01T04:46:00.885Z,811.23
2022-12-01T04:47:00.953Z,811.23
2022-12-01T04:48:00.890Z,811.23
2022-12-01T04:49:00.899Z,811.24
2022-12-01T04:50:00.894Z,811.22
2022-12-01T04:51:00.901Z,811.20
2022-12-01T04:52:00.900Z,811.17
2022-12-01T04:53:00.907Z,811.18
2022-12-01T04:54:00.910Z,811.19
2022-12-01T04:55:00.932Z,811.17
2022-12-01T04:56:01.008Z,811.20
2022-12-01T04:57:00.921Z,811.19
2022-12-01T04:58:00.918Z,811.16
2022-12-01T04:59:00.925Z,811.16
2022-12-01T05:00:00.937Z,811.17
2022-12-01T05:01:01.102Z,811.12
2022-12-01T05:02:01.001Z,811.12
2022-12-01T05:03:00.933Z,811.21
2022-12-01T05:04:00.940Z,811.17
2022-12-01T05:05:00.945Z,811.19
2022-12-01T05:06:01.033Z,811.15
2022-12-01T05:07:00.948Z,811.17
2022-12-01T05:08:01.015Z,811.20
2022-12-01T05:09:00.950Z,811.20
2022-12-01T05:10:00.949Z,811.20
2022-12-01T05:11:01.042Z,811.20
2022-12-01T05:12:00.953Z,811.17
2022-12-01T05:13:00.963Z,811.19
2022-12-01T05:14:00.958Z,811.18
2022-12-01T05:15:00.964Z,811.19
2022-12-01T05:16:01.067Z,811.23
2022-12-01T05:17:00.983Z,811.19
2022-12-01T05:18:00.976Z,811.22
2022-12-01T05:19:01.094Z,811.20
2022-12-01T05:20:00.974Z,811.20
2022-12-01T05:21:00.980Z,811.23
2022-12-01T05:22:00.979Z,811.22
2022-12-01T05:23:05.680Z,811.20
2022-12-01T05:24:00.983Z,811.21
2022-12-01T05:25:00.988Z,811.21
2022-12-01T05:26:00.990Z,811.23
2022-12-01T05:27:01.016Z,811.25
2022-12-01T05:28:01.012Z,811.28
2022-12-01T05:29:01.005Z,811.26
2022-12-01T05:30:00.997Z,811.26
2022-12-01T05:31:01.313Z,811.28
2022-12-01T05:32:01.068Z,811.26
2022-12-01T05:33:01.009Z,811.26
2022-12-01T05:34:01.011Z,811.26
2022-12-01T05:35:01.018Z,811.26
2022-12-01T05:36:01.014Z,811.28
2022-12-01T05:37:01.018Z,811.34
2022-12-01T05:38:07.340Z,811.30
2022-12-01T05:39:01.025Z,811.32
2022-12-01T05:40:01.021Z,811.33
2022-12-01T05:41:01.026Z,811.36
2022-12-01T05:42:01.026Z,811.36
2022-12-01T05:43:01.051Z,811.36
2022-12-01T05:44:01.030Z,811.35
2022-12-01T05:45:01.042Z,811.37
2022-12-01T05:46:01.086Z,811.38
2022-12-01T05:47:01.042Z,811.40
2022-12-01T05:48:01.036Z,811.41
2022-12-01T05:49:01.043Z,811.39
2022-12-01T05:50:08.236Z,811.40
2022-12-01T05:51:01.047Z,811.40
2022-12-01T05:52:01.055Z,811.37
2022-12-01T05:53:01.054Z,811.41
2022-12-01T05:54:01.051Z,811.36
2022-12-01T05:55:01.056Z,811.41
2022-12-01T05:56:01.060Z,811.41
2022-12-01T05:57:01.068Z,811.37
2022-12-01T05:58:01.065Z,811.40
2022-12-01T05:59:01.086Z,811.41
2022-12-01T06:00:01.064Z,811.37
2022-12-01T06:01:01.070Z,811.39
2022-12-01T06:02:01.123Z,811.34
2022-12-01T06:03:01.077Z,811.39
2022-12-01T06:04:01.126Z,811.37
2022-12-01T06:05:01.080Z,811.36
2022-12-01T06:06:01.078Z,811.36
2022-12-01T06:07:01.090Z,811.39
2022-12-01T06:08:01.205Z,811.41
2022-12-01T06:09:01.095Z,811.37
2022-12-01T06:10:01.089Z,811.44
2022-12-01T06:11:01.096Z,811.42
2022-12-01T06:12:01.096Z,811.38
2022-12-01T06:13:01.098Z,811.44
2022-12-01T06:14:01.098Z,811.42
2022-12-01T06:15:01.120Z,811.42
2022-12-01T06:16:01.108Z,811.37
2022-12-01T06:17:01.206Z,811.42
2022-12-01T06:18:01.105Z,811.40
2022-12-01T06:19:01.112Z,811.42
2022-12-01T06:20:01.111Z,811.41
2022-12-01T06:21:01.133Z,811.39
2022-12-01T06:22:01.115Z,811.40
2022-12-01T06:23:01.118Z,811.43
2022-12-01T06:24:01.133Z,811.43
2022-12-01T06:25:01.164Z,811.44
2022-12-01T06:26:01.123Z,811.45
2022-12-01T06:27:01.134Z,811.43
2022-12-01T06:28:01.131Z,811.47
2022-12-01T06:29:01.135Z,811.47
2022-12-01T06:30:01.133Z,811.41
2022-12-01T06:31:03.570Z,811.42
2022-12-01T06:32:01.217Z,811.48
2022-12-01T06:33:01.145Z,811.44
2022-12-01T06:34:01.142Z,811.49
2022-12-01T06:35:01.148Z,811.50
2022-12-01T06:36:01.147Z,811.47
2022-12-01T06:37:01.153Z,811.47
2022-12-01T06:38:01.154Z,811.51
2022-12-01T06:39:01.174Z,811.50
2022-12-01T06:40:01.161Z,811.51
2022-12-01T06:41:01.159Z,811.58
2022-12-01T06:42:01.157Z,811.58
2022-12-01T06:43:01.169Z,811.61
2022-12-01T06:44:01.265Z,811.57
2022-12-01T06:45:01.175Z,811.53
2022-12-01T06:46:02.475Z,811.53
2022-12-01T06:47:01.193Z,811.56
2022-12-01T06:48:01.174Z,811.58
2022-12-01T06:49:01.180Z,811.54
2022-12-01T06:50:01.179Z,811.57
2022-12-01T06:51:01.182Z,811.55
2022-12-01T06:52:01.307Z,811.57
2022-12-01T06:53:01.190Z,811.60
2022-12-01T06:54:05.423Z,811.59
2022-12-01T06:55:01.190Z,811.58
2022-12-01T06:56:01.190Z,811.61
2022-12-01T06:57:01.205Z,811.58
2022-12-01T06:58:01.193Z,811.63
2022-12-01T06:59:01.201Z,811.63
2022-12-01T07:00:01.197Z,811.66
2022-12-01T07:01:01.275Z,811.67
2022-12-01T07:02:01.283Z,811.64
2022-12-01T07:03:01.323Z,811.62
2022-12-01T07:04:01.219Z,811.64
2022-12-01T07:05:01.216Z,811.66
2022-12-01T07:06:01.217Z,811.66
2022-12-01T07:07:01.212Z,811.65
2022-12-01T07:08:01.309Z,811.62
2022-12-01T07:09:01.221Z,811.64
2022-12-01T07:10:01.224Z,811.65
2022-12-01T07:11:01.224Z,811.66
2022-12-01T07:12:01.227Z,811.64
2022-12-01T07:13:01.226Z,811.70
2022-12-01T07:14:01.233Z,811.69
2022-12-01T07:15:01.233Z,811.68
2022-12-01T07:16:01.237Z,811.71
2022-12-01T07:17:01.333Z,811.68
2022-12-01T07:18:01.249Z,811.70
2022-12-01T07:19:01.263Z,811.71
2022-12-01T07:20:01.259Z,811.70
2022-12-01T07:21:01.275Z,811.71
2022-12-01T07:22:01.253Z,811.69
2022-12-01T07:23:01.254Z,811.74
2022-12-01T07:24:01.259Z,811.70
2022-12-01T07:25:01.258Z,811.71
2022-12-01T07:26:01.256Z,811.70
2022-12-01T07:27:01.258Z,811.69
2022-12-01T07:28:01.261Z,811.70
2022-12-01T07:29:01.259Z,811.72
2022-12-01T07:30:01.274Z,811.72
2022-12-01T07:31:01.320Z,811.75
2022-12-01T07:32:01.270Z,811.68
2022-12-01T07:33:01.274Z,811.71
2022-12-01T07:34:01.279Z,811.72
2022-12-01T07:35:01.300Z,811.73
2022-12-01T07:36:01.274Z,811.74
2022-12-01T07:37:01.272Z,811.76
2022-12-01T07:38:01.280Z,811.77
2022-12-01T07:39:01.277Z,811.75
2022-12-01T07:40:01.283Z,811.81
2022-12-01T07:41:01.280Z,811.82
2022-12-01T07:42:01.396Z,811.82
2022-12-01T07:43:01.285Z,811.87
2022-12-01T07:44:01.294Z,811.85
2022-12-01T07:45:01.289Z,811.88
2022-12-01T07:46:01.309Z,811.88
2022-12-01T07:47:01.331Z,811.87
2022-12-01T07:48:01.298Z,811.89
2022-12-01T07:49:01.295Z,811.92
2022-12-01T07:50:01.296Z,811.93
2022-12-01T07:51:01.427Z,811.92
2022-12-01T07:52:01.386Z,811.93
2022-12-01T07:53:01.301Z,811.95
2022-12-01T07:54:01.307Z,811.92
2022-12-01T07:55:01.301Z,811.96
2022-12-01T07:56:05.685Z,811.95
2022-12-01T07:57:01.319Z,811.94
2022-12-01T07:58:01.308Z,811.95
2022-12-01T07:59:01.307Z,811.93
2022-12-01T08:00:01.317Z,811.94
2022-12-01T08:01:01.397Z,811.97
2022-12-01T08:02:01.413Z,811.96
2022-12-01T08:03:01.418Z,811.97
2022-12-01T08:04:01.319Z,811.95
2022-12-01T08:05:01.319Z,811.96
2022-12-01T08:06:01.325Z,811.97
2022-12-01T08:07:01.355Z,811.95
2022-12-01T08:08:01.433Z,811.96
2022-12-01T08:09:01.326Z,811.93
2022-12-01T08:10:01.326Z,811.97
2022-12-01T08:11:01.326Z,811.95
2022-12-01T08:12:01.330Z,811.97
2022-12-01T08:13:01.329Z,811.99
2022-12-01T08:14:01.332Z,812.00
2022-12-01T08:15:01.347Z,812.00
2022-12-01T08:16:01.380Z,811.96
2022-12-01T08:17:01.336Z,812.00
2022-12-01T08:18:01.338Z,811.99
2022-12-01T08:19:01.339Z,811.99
2022-12-01T08:20:01.344Z,811.99
2022-12-01T08:21:01.340Z,811.95
2022-12-01T08:22:01.345Z,811.95
2022-12-01T08:23:01.364Z,811.95
2022-12-01T08:24:01.348Z,811.95
2022-12-01T08:25:01.348Z,811.97
2022-12-01T08:26:01.351Z,811.96
2022-12-01T08:27:01.350Z,812.02
2022-12-01T08:28:01.359Z,812.02
2022-12-01T08:29:01.351Z,812.00
2022-12-01T08:30:01.357Z,811.98
2022-12-01T08:31:01.404Z,811.98
2022-12-01T08:32:01.357Z,811.95
2022-12-01T08:33:01.355Z,811.95
2022-12-01T08:34:01.360Z,811.97
2022-12-01T08:35:01.361Z,811.95
2022-12-01T08:36:01.365Z,811.96
2022-12-01T08:37:01.367Z,812.00
2022-12-01T08:38:01.369Z,811.95
2022-12-01T08:39:01.389Z,811.97
2022-12-01T08:40:01.374Z,811.98
2022-12-01T08:41:01.371Z,811.98
2022-12-01T08:42:01.375Z,811.98
2022-12-01T08:43:01.378Z,811.99
2022-12-01T08:44:01.831Z,812.01
2022-12-01T08:45:01.470Z,811.98
2022-12-01T08:46:01.418Z,812.01
2022-12-01T08:47:01.380Z,811.99
2022-12-01T08:48:01.384Z,811.99
2022-12-01T08:49:01.395Z,812.00
2022-12-01T08:50:01.403Z,811.99
2022-12-01T08:51:01.385Z,811.99
2022-12-01T08:52:01.393Z,811.94
2022-12-01T08:53:01.389Z,811.99
2022-12-01T08:54:01.400Z,811.97
2022-12-01T08:55:01.409Z,812.01
2022-12-01T08:56:01.399Z,812.00
2022-12-01T08:57:01.397Z,812.00
2022-12-01T08:58:01.401Z,811.99
2022-12-01T08:59:01.403Z,812.00
2022-12-01T09:00:01.404Z,812.00
2022-12-01T09:01:01.405Z,812.00
2022-12-01T09:02:06.808Z,811.99
2022-12-01T09:03:01.465Z,812.02
2022-12-01T09:04:01.413Z,812.03
2022-12-01T09:05:01.414Z,812.00
2022-12-01T09:06:01.415Z,812.01
2022-12-01T09:07:01.427Z,812.00
2022-12-01T09:08:01.477Z,812.04
2022-12-01T09:09:01.425Z,812.02
2022-12-01T09:10:01.425Z,812.03
2022-12-01T09:11:01.444Z,812.06
2022-12-01T09:12:01.430Z,812.07
2022-12-01T09:13:01.430Z,812.07
2022-12-01T09:14:01.434Z,812.09
2022-12-01T09:15:01.451Z,812.04
2022-12-01T09:16:01.556Z,812.12
2022-12-01T09:17:01.441Z,812.07
2022-12-01T09:18:01.442Z,812.11
2022-12-01T09:19:01.439Z,812.08
2022-12-01T09:20:01.447Z,812.09
2022-12-01T09:21:01.445Z,812.10
2022-12-01T09:22:01.451Z,812.09
2022-12-01T09:23:01.448Z,812.11
2022-12-01T09:24:01.463Z,812.07
2022-12-01T09:25:01.463Z,812.09
2022-12-01T09:26:01.463Z,812.08
2022-12-01T09:27:01.477Z,812.09
2022-12-01T09:28:01.464Z,812.06
2022-12-01T09:29:01.465Z,812.08
2022-12-01T09:30:01.471Z,812.10
2022-12-01T09:31:01.524Z,812.08
2022-12-01T09:32:01.476Z,812.08
2022-12-01T09:33:01.477Z,812.08
2022-12-01T09:34:01.484Z,812.09
2022-12-01T09:35:01.480Z,812.06
2022-12-01T09:36:01.522Z,812.10
2022-12-01T09:37:01.508Z,812.06
2022-12-01T09:38:01.504Z,812.10
2022-12-01T09:39:01.508Z,812.08
2022-12-01T09:40:01.497Z,812.14
2022-12-01T09:41:01.497Z,812.11
2022-12-01T09:42:05.025Z,812.18
2022-12-01T09:43:01.525Z,812.17
2022-12-01T09:44:01.510Z,812.15
2022-12-01T09:45:01.508Z,812.19
2022-12-01T09:46:01.514Z,812.15
2022-12-01T09:47:01.527Z,812.15
2022-12-01T09:48:01.527Z,812.16
2022-12-01T09:49:01.524Z,812.17
2022-12-01T09:50:01.526Z,812.14
2022-12-01T09:51:01.532Z,812.16
2022-12-01T09:52:01.537Z,812.17
2022-12-01T09:53:01.535Z,812.15
2022-12-01T09:54:01.543Z,812.15
2022-12-01T09:55:01.548Z,812.14
2022-12-01T09:56:08.493Z,812.16
2022-12-01T09:57:01.557Z,812.21
2022-12-01T09:58:01.576Z,812.19
2022-12-01T09:59:01.586Z,812.20
2022-12-01T10:00:01.568Z,812.18
2022-12-01T10:01:01.624Z,812.20
2022-12-01T10:02:01.650Z,812.18
2022-12-01T10:03:01.575Z,812.20
2022-12-01T10:04:01.600Z,812.21
2022-12-01T10:05:01.678Z,812.22
2022-12-01T10:07:01.598Z,812.24
2022-12-01T10:08:01.674Z,812.18
2022-12-01T10:09:01.602Z,812.15
2022-12-01T10:10:01.634Z,812.17
2022-12-01T10:11:01.621Z,812.16
2022-12-01T10:12:01.621Z,812.17
2022-12-01T10:13:01.622Z,812.12
2022-12-01T10:14:01.626Z,812.11
2022-12-01T10:15:01.678Z,812.09
2022-12-01T10:16:01.691Z,812.10
2022-12-01T10:17:01.642Z,812.06
2022-12-01T10:18:01.645Z,812.08
2022-12-01T10:19:01.647Z,812.07
2022-12-01T10:20:01.654Z,812.04
2022-12-01T10:21:01.656Z,812.04
2022-12-01T10:22:01.662Z,812.06
2022-12-01T10:23:01.666Z,812.01
2022-12-01T10:24:01.677Z,812.01
2022-12-01T10:25:01.674Z,811.98
2022-12-01T10:26:01.682Z,812.02
2022-12-01T10:27:01.684Z,811.99
2022-12-01T10:28:01.692Z,811.96
2022-12-01T10:29:01.713Z,811.98
2022-12-01T10:30:01.704Z,811.98
2022-12-01T10:31:01.724Z,811.91
2022-12-01T10:32:01.786Z,811.92
2022-12-01T10:33:01.714Z,811.98
2022-12-01T10:34:01.722Z,811.93
2022-12-01T10:35:01.722Z,811.91
2022-12-01T10:36:01.741Z,811.88
2022-12-01T10:37:01.732Z,811.87
2022-12-01T10:38:01.799Z,811.86
2022-12-01T10:39:01.744Z,811.88
2022-12-01T10:40:01.752Z,811.89
2022-12-01T10:41:01.756Z,811.90
2022-12-01T10:42:01.759Z,811.85
2022-12-01T10:43:01.761Z,811.86
2022-12-01T10:44:01.770Z,811.83
2022-12-01T10:45:01.778Z,811.84
2022-12-01T10:46:01.822Z,811.83
2022-12-01T10:47:01.893Z,811.80
2022-12-01T10:48:01.792Z,811.81
2022-12-01T10:49:01.794Z,811.84
2022-12-01T10:50:01.804Z,811.80
2022-12-01T10:51:01.810Z,811.84
2022-12-01T10:52:01.834Z,811.85
2022-12-01T10:53:01.815Z,811.82
2022-12-01T10:54:01.824Z,811.78
2022-12-01T10:55:01.826Z,811.79
2022-12-01T10:56:01.836Z,811.83
2022-12-01T10:57:01.838Z,811.83
2022-12-01T10:58:06.223Z,811.83
2022-12-01T10:59:01.848Z,811.82
2022-12-01T11:00:01.861Z,811.82
2022-12-01T11:01:02.279Z,811.84
2022-12-01T11:02:02.065Z,811.82
2022-12-01T11:03:02.316Z,811.83
2022-12-01T11:04:02.044Z,811.79
2022-12-01T11:05:01.879Z,811.79
2022-12-01T11:06:01.905Z,811.78
2022-12-01T11:07:01.890Z,811.76
2022-12-01T11:08:01.940Z,811.73
2022-12-01T11:09:01.901Z,811.74
2022-12-01T11:10:01.916Z,811.76
2022-12-01T11:11:01.908Z,811.76
2022-12-01T11:12:01.920Z,811.73
2022-12-01T11:13:01.920Z,811.70
2022-12-01T11:14:01.926Z,811.73
2022-12-01T11:15:02.027Z,811.71
2022-12-01T11:16:02.023Z,811.71
2022-12-01T11:17:02.000Z,811.72
2022-12-01T11:18:01.955Z,811.67
2022-12-01T11:19:02.011Z,811.70
2022-12-01T11:20:01.996Z,811.68
2022-12-01T11:21:01.960Z,811.65
2022-12-01T11:22:01.963Z,811.67
2022-12-01T11:23:01.971Z,811.66
2022-12-01T11:24:01.972Z,811.67
2022-12-01T11:25:01.980Z,811.67
2022-12-01T11:26:01.984Z,811.68
2022-12-01T11:27:01.989Z,811.68
2022-12-01T11:28:01.993Z,811.69
2022-12-01T11:29:02.001Z,811.68
2022-12-01T11:30:02.000Z,811.66
2022-12-01T11:31:02.011Z,811.63
2022-12-01T11:32:02.166Z,811.60
2022-12-01T11:33:02.027Z,811.63
2022-12-01T11:34:02.023Z,811.61
2022-12-01T11:35:02.053Z,811.64
2022-12-01T11:36:02.035Z,811.63
2022-12-01T11:37:02.043Z,811.66
2022-12-01T11:39:02.054Z,811.63
2022-12-01T11:40:02.058Z,811.63
2022-12-01T11:41:02.073Z,811.63
2022-12-01T11:42:02.150Z,811.63
2022-12-01T11:43:02.079Z,811.64
2022-12-01T11:44:04.000Z,811.59
2022-12-01T11:45:02.089Z,811.58
2022-12-01T11:46:02.159Z,811.59
2022-12-01T11:47:22.165Z,811.58
2022-12-01T11:48:02.104Z,811.63
2022-12-01T11:49:02.113Z,811.60
2022-12-01T11:50:02.122Z,811.61
2022-12-01T11:51:02.243Z,811.61
2022-12-01T11:52:02.130Z,811.63
2022-12-01T11:53:02.147Z,811.61
2022-12-01T11:54:02.140Z,811.55
2022-12-01T11:56:02.156Z,811.51
2022-12-01T11:57:32.343Z,811.58
2022-12-01T11:58:02.162Z,811.56
2022-12-01T11:59:02.180Z,811.54
2022-12-01T12:00:02.187Z,811.54
2022-12-01T12:01:02.201Z,811.56
2022-12-01T12:02:02.238Z,811.52
2022-12-01T12:03:02.270Z,811.56
2022-12-01T12:04:02.215Z,811.55
2022-12-01T12:05:02.209Z,811.61
2022-12-01T12:06:31.859Z,811.57
2022-12-01T12:07:02.247Z,811.58
2022-12-01T12:08:02.291Z,811.52
2022-12-01T12:09:02.338Z,811.55
2022-12-01T12:10:02.237Z,811.53
2022-12-01T12:11:02.333Z,811.53
2022-12-01T12:12:02.257Z,811.53
2022-12-01T12:13:02.264Z,811.52
2022-12-01T12:14:02.264Z,811.54
2022-12-01T12:15:02.289Z,811.51
2022-12-01T12:16:02.278Z,811.53
2022-12-01T12:17:02.289Z,811.53
2022-12-01T12:18:02.389Z,811.51
2022-12-01T12:19:02.304Z,811.51
2022-12-01T12:20:10.032Z,811.54
2022-12-01T12:21:02.315Z,811.50
2022-12-01T12:22:02.315Z,811.53
2022-12-01T12:23:02.354Z,811.51
2022-12-01T12:24:02.329Z,811.52
2022-12-01T12:25:02.342Z,811.56
2022-12-01T12:26:02.344Z,811.55
2022-12-01T12:27:02.352Z,811.55
2022-12-01T12:28:02.358Z,811.54
2022-12-01T12:29:02.368Z,811.61
2022-12-01T12:30:02.382Z,811.54
2022-12-01T12:31:02.467Z,811.56